sensor_id;sensor_type;location;lat;lon;timestamp;pressure;altitude;pressure_sealevel;temperature;humidity
28628;BME280;15815;46.760;19.604;2023-11-21T00:01:02;99927.63;;;5.45;93.87
28628;BME280;15815;46.760;19.604;2023-11-21T00:03:30;99933.72;;;5.54;93.80
28628;BME280;15815;46.760;19.604;2023-11-21T00:05:55;99930.66;;;5.66;94.30
28628;BME280;15815;46.760;19.604;2023-11-21T00:08:23;99891.66;;;5.33;94.95
28628;BME280;15815;46.760;19.604;2023-11-21T00:10:48;99925.03;;;5.59;95.14
28628;BME280;15815;46.760;19.604;2023-11-21T00:13:14;99925.91;;;5.67;94.80
28628;BME280;15815;46.760;19.604;2023-11-21T00:15:40;99921.44;;;5.58;95.59
28628;BME280;15815;46.760;19.604;2023-11-21T00:18:06;99921.47;;;5.62;95.38
28628;BME280;15815;46.760;19.604;2023-11-21T00:20:35;99915.56;;;5.71;95.30
28628;BME280;15815;46.760;19.604;2023-11-21T00:23:01;99905.13;;;5.61;95.18
28628;BME280;15815;46.760;19.604;2023-11-21T00:25:27;99927.72;;;5.85;95.01
28628;BME280;15815;46.760;19.604;2023-11-21T00:27:53;99905.22;;;5.71;94.19
28628;BME280;15815;46.760;19.604;2023-11-21T00:30:20;99923.00;;;5.89;94.80
28628;BME280;15815;46.760;19.604;2023-11-21T00:32:46;99890.97;;;5.76;94.41
28628;BME280;15815;46.760;19.604;2023-11-21T00:35:11;99922.22;;;5.93;94.54
28628;BME280;15815;46.760;19.604;2023-11-21T00:37:37;99930.88;;;5.84;94.72
28628;BME280;15815;46.760;19.604;2023-11-21T00:40:02;99937.28;;;5.88;94.52
28628;BME280;15815;46.760;19.604;2023-11-21T00:42:28;99935.69;;;5.87;94.53
28628;BME280;15815;46.760;19.604;2023-11-21T00:44:54;99913.97;;;5.70;95.05
28628;BME280;15815;46.760;19.604;2023-11-21T00:47:20;99914.38;;;5.68;95.09
28628;BME280;15815;46.760;19.604;2023-11-21T00:49:46;99902.03;;;5.69;95.36
28628;BME280;15815;46.760;19.604;2023-11-21T00:52:11;99925.31;;;5.84;94.67
28628;BME280;15815;46.760;19.604;2023-11-21T00:54:37;99907.31;;;5.78;94.62
28628;BME280;15815;46.760;19.604;2023-11-21T00:57:02;99903.75;;;5.81;94.25
28628;BME280;15815;46.760;19.604;2023-11-21T00:59:28;99948.69;;;6.06;95.09
28628;BME280;15815;46.760;19.604;2023-11-21T01:01:54;99916.56;;;5.85;95.08
28628;BME280;15815;46.760;19.604;2023-11-21T01:04:20;99907.75;;;5.83;95.43
28628;BME280;15815;46.760;19.604;2023-11-21T01:06:45;99931.88;;;6.02;95.49
28628;BME280;15815;46.760;19.604;2023-11-21T01:09:11;99923.19;;;6.07;95.53
28628;BME280;15815;46.760;19.604;2023-11-21T01:11:37;99912.81;;;6.08;95.07
28628;BME280;15815;46.760;19.604;2023-11-21T01:14:06;99910.03;;;6.08;96.02
28628;BME280;15815;46.760;19.604;2023-11-21T01:16:31;99910.44;;;6.06;96.25
28628;BME280;15815;46.760;19.604;2023-11-21T01:18:59;99910.91;;;6.15;96.23
28628;BME280;15815;46.760;19.604;2023-11-21T01:21:25;99898.06;;;6.07;96.51
28628;BME280;15815;46.760;19.604;2023-11-21T01:23:50;99884.09;;;6.04;96.17
28628;BME280;15815;46.760;19.604;2023-11-21T01:26:16;99921.75;;;6.28;96.46
28628;BME280;15815;46.760;19.604;2023-11-21T01:28:42;99909.06;;;6.30;96.40
28628;BME280;15815;46.760;19.604;2023-11-21T01:33:43;99895.94;;;6.34;96.24
28628;BME280;15815;46.760;19.604;2023-11-21T01:36:09;99895.53;;;6.36;96.30
28628;BME280;15815;46.760;19.604;2023-11-21T01:38:34;99876.25;;;6.20;96.95
28628;BME280;15815;46.760;19.604;2023-11-21T01:41:01;99893.53;;;6.36;96.33
28628;BME280;15815;46.760;19.604;2023-11-21T01:43:27;99888.38;;;6.38;96.71
28628;BME280;15815;46.760;19.604;2023-11-21T01:45:55;99869.59;;;6.32;96.94
28628;BME280;15815;46.760;19.604;2023-11-21T01:48:21;99865.13;;;6.27;96.74
28628;BME280;15815;46.760;19.604;2023-11-21T01:50:47;99860.22;;;6.10;98.90
28628;BME280;15815;46.760;19.604;2023-11-21T01:53:14;99872.00;;;6.33;98.16
28628;BME280;15815;46.760;19.604;2023-11-21T01:55:41;99893.66;;;6.50;97.35
28628;BME280;15815;46.760;19.604;2023-11-21T01:58:07;99853.25;;;6.34;96.77
28628;BME280;15815;46.760;19.604;2023-11-21T02:00:34;99862.09;;;6.43;96.46
28628;BME280;15815;46.760;19.604;2023-11-21T02:03:00;99846.78;;;6.26;96.81
28628;BME280;15815;46.760;19.604;2023-11-21T02:05:25;99854.03;;;6.31;96.59
28628;BME280;15815;46.760;19.604;2023-11-21T02:07:52;99852.06;;;6.35;97.36
28628;BME280;15815;46.760;19.604;2023-11-21T02:10:18;99853.28;;;6.37;97.41
28628;BME280;15815;46.760;19.604;2023-11-21T02:12:44;99852.06;;;6.35;97.05
28628;BME280;15815;46.760;19.604;2023-11-21T02:15:12;99857.25;;;6.36;96.84
28628;BME280;15815;46.760;19.604;2023-11-21T02:17:38;99819.50;;;6.02;96.68
28628;BME280;15815;46.760;19.604;2023-11-21T02:20:04;99829.13;;;6.08;96.53
28628;BME280;15815;46.760;19.604;2023-11-21T02:22:31;99846.34;;;6.17;96.42
28628;BME280;15815;46.760;19.604;2023-11-21T02:24:59;99845.53;;;6.16;96.52
28628;BME280;15815;46.760;19.604;2023-11-21T02:27:26;99833.94;;;6.11;96.35
28628;BME280;15815;46.760;19.604;2023-11-21T02:29:51;99830.81;;;6.19;95.92
28628;BME280;15815;46.760;19.604;2023-11-21T02:32:17;99830.38;;;6.14;95.87
28628;BME280;15815;46.760;19.604;2023-11-21T02:34:42;99827.50;;;6.03;96.29
28628;BME280;15815;46.760;19.604;2023-11-21T02:37:08;99829.91;;;6.05;96.77
28628;BME280;15815;46.760;19.604;2023-11-21T02:39:33;99820.28;;;6.02;96.76
28628;BME280;15815;46.760;19.604;2023-11-21T02:42:00;99821.06;;;5.99;97.31
28628;BME280;15815;46.760;19.604;2023-11-21T02:44:28;99834.97;;;5.96;96.68
28628;BME280;15815;46.760;19.604;2023-11-21T02:46:56;99828.97;;;5.90;96.60
28628;BME280;15815;46.760;19.604;2023-11-21T02:49:22;99836.16;;;5.95;97.44
28628;BME280;15815;46.760;19.604;2023-11-21T02:51:47;99825.38;;;5.89;97.35
28628;BME280;15815;46.760;19.604;2023-11-21T02:54:13;99840.19;;;6.01;98.17
28628;BME280;15815;46.760;19.604;2023-11-21T02:56:40;99844.72;;;6.12;97.41
28628;BME280;15815;46.760;19.604;2023-11-21T02:59:06;99831.44;;;6.02;97.11
28628;BME280;15815;46.760;19.604;2023-11-21T03:01:31;99847.53;;;6.19;97.27
28628;BME280;15815;46.760;19.604;2023-11-21T03:03:57;99837.47;;;6.04;97.08
28628;BME280;15815;46.760;19.604;2023-11-21T03:06:22;99834.69;;;6.04;97.94
28628;BME280;15815;46.760;19.604;2023-11-21T03:08:48;99846.69;;;6.12;97.46
28628;BME280;15815;46.760;19.604;2023-11-21T03:11:14;99834.75;;;6.15;96.42
28628;BME280;15815;46.760;19.604;2023-11-21T03:13:40;99824.41;;;6.19;96.60
28628;BME280;15815;46.760;19.604;2023-11-21T03:16:07;99822.47;;;6.23;96.38
28628;BME280;15815;46.760;19.604;2023-11-21T03:18:33;99827.63;;;6.21;96.57
28628;BME280;15815;46.760;19.604;2023-11-21T03:20:58;99821.19;;;6.13;96.56
28628;BME280;15815;46.760;19.604;2023-11-21T03:23:24;99788.34;;;5.93;97.26
28628;BME280;15815;46.760;19.604;2023-11-21T03:25:49;99790.78;;;6.01;97.56
28628;BME280;15815;46.760;19.604;2023-11-21T03:28:15;99802.81;;;6.05;97.39
28628;BME280;15815;46.760;19.604;2023-11-21T03:30:40;99810.41;;;6.12;97.57
28628;BME280;15815;46.760;19.604;2023-11-21T03:33:06;99822.03;;;6.21;98.07
28628;BME280;15815;46.760;19.604;2023-11-21T03:35:31;99812.91;;;6.24;98.07
28628;BME280;15815;46.760;19.604;2023-11-21T03:37:57;99818.06;;;6.22;98.23
28628;BME280;15815;46.760;19.604;2023-11-21T03:40:22;99793.31;;;6.17;97.89
28628;BME280;15815;46.760;19.604;2023-11-21T03:42:48;99800.09;;;6.19;98.32
28628;BME280;15815;46.760;19.604;2023-11-21T03:45:14;99788.16;;;6.19;97.62
28628;BME280;15815;46.760;19.604;2023-11-21T03:47:44;99796.56;;;6.26;98.08
28628;BME280;15815;46.760;19.604;2023-11-21T03:50:09;99789.38;;;6.25;98.25
28628;BME280;15815;46.760;19.604;2023-11-21T03:52:35;99774.53;;;6.07;98.06
28628;BME280;15815;46.760;19.604;2023-11-21T03:55:19;99820.41;;;6.13;99.48
28628;BME280;15815;46.760;19.604;2023-11-21T03:57:44;99778.84;;;6.01;99.00
28628;BME280;15815;46.760;19.604;2023-11-21T04:00:10;99824.13;;;6.31;98.69
28628;BME280;15815;46.760;19.604;2023-11-21T04:02:36;99831.69;;;6.31;97.76
28628;BME280;15815;46.760;19.604;2023-11-21T04:05:01;99823.75;;;6.33;97.81
28628;BME280;15815;46.760;19.604;2023-11-21T04:07:27;99818.88;;;6.26;97.91
28628;BME280;15815;46.760;19.604;2023-11-21T04:09:53;99813.69;;;6.25;97.59
28628;BME280;15815;46.760;19.604;2023-11-21T04:12:19;99827.75;;;6.35;97.75
28628;BME280;15815;46.760;19.604;2023-11-21T04:14:45;99834.94;;;6.36;98.02
28628;BME280;15815;46.760;19.604;2023-11-21T04:17:10;99826.16;;;6.34;98.28
28628;BME280;15815;46.760;19.604;2023-11-21T04:19:36;99829.44;;;6.54;97.77
28628;BME280;15815;46.760;19.604;2023-11-21T04:22:01;99824.31;;;6.60;97.54
28628;BME280;15815;46.760;19.604;2023-11-21T04:24:27;99813.88;;;6.53;97.30
28628;BME280;15815;46.760;19.604;2023-11-21T04:26:58;99783.09;;;6.35;97.69
28628;BME280;15815;46.760;19.604;2023-11-21T04:29:24;99791.88;;;6.41;97.59
28628;BME280;15815;46.760;19.604;2023-11-21T04:31:49;99816.34;;;6.58;96.97
28628;BME280;15815;46.760;19.604;2023-11-21T04:34:17;99826.34;;;6.66;97.52
28628;BME280;15815;46.760;19.604;2023-11-21T04:36:42;99807.47;;;6.45;98.59
28628;BME280;15815;46.760;19.604;2023-11-21T04:39:08;99779.44;;;6.28;99.07
28628;BME280;15815;46.760;19.604;2023-11-21T04:41:33;99777.50;;;6.35;98.28
28628;BME280;15815;46.760;19.604;2023-11-21T04:43:59;99787.91;;;6.45;98.04
28628;BME280;15815;46.760;19.604;2023-11-21T04:46:24;99791.91;;;6.44;98.37
28628;BME280;15815;46.760;19.604;2023-11-21T04:48:50;99791.06;;;6.37;98.65
28628;BME280;15815;46.760;19.604;2023-11-21T04:51:15;99821.47;;;6.53;98.91
28628;BME280;15815;46.760;19.604;2023-11-21T04:53:41;99775.84;;;6.27;97.63
28628;BME280;15815;46.760;19.604;2023-11-21T04:56:07;99815.06;;;6.48;97.50
28628;BME280;15815;46.760;19.604;2023-11-21T04:58:32;99809.84;;;6.43;98.01
28628;BME280;15815;46.760;19.604;2023-11-21T05:00:58;99833.03;;;6.55;98.88
28628;BME280;15815;46.760;19.604;2023-11-21T05:03:23;99818.59;;;6.42;98.12
28628;BME280;15815;46.760;19.604;2023-11-21T05:05:49;99815.03;;;6.45;99.12
28628;BME280;15815;46.760;19.604;2023-11-21T05:08:14;99817.41;;;6.43;98.62
28628;BME280;15815;46.760;19.604;2023-11-21T05:10:40;99831.09;;;6.59;99.28
28628;BME280;15815;46.760;19.604;2023-11-21T05:13:05;99810.25;;;6.45;99.06
28628;BME280;15815;46.760;19.604;2023-11-21T05:15:31;99822.28;;;6.57;99.12
28628;BME280;15815;46.760;19.604;2023-11-21T05:17:57;99825.53;;;6.62;99.04
28628;BME280;15815;46.760;19.604;2023-11-21T05:20:25;99834.75;;;6.70;98.88
28628;BME280;15815;46.760;19.604;2023-11-21T05:22:51;99797.13;;;6.49;99.09
28628;BME280;15815;46.760;19.604;2023-11-21T05:25:17;99812.69;;;6.54;98.84
28628;BME280;15815;46.760;19.604;2023-11-21T05:27:44;99840.72;;;6.68;99.34
28628;BME280;15815;46.760;19.604;2023-11-21T05:30:10;99852.69;;;6.65;99.93
28628;BME280;15815;46.760;19.604;2023-11-21T05:32:36;99849.44;;;6.60;100.00
28628;BME280;15815;46.760;19.604;2023-11-21T05:35:01;99831.13;;;6.62;99.76
28628;BME280;15815;46.760;19.604;2023-11-21T05:37:27;99861.53;;;6.81;99.17
28628;BME280;15815;46.760;19.604;2023-11-21T05:39:53;99865.50;;;6.77;99.65
28628;BME280;15815;46.760;19.604;2023-11-21T05:42:18;99866.78;;;6.87;99.76
28628;BME280;15815;46.760;19.604;2023-11-21T05:44:45;99853.56;;;6.83;99.08
28628;BME280;15815;46.760;19.604;2023-11-21T05:47:11;99883.97;;;6.96;99.17
28628;BME280;15815;46.760;19.604;2023-11-21T05:49:37;99882.38;;;6.95;99.84
28628;BME280;15815;46.760;19.604;2023-11-21T05:52:03;99879.97;;;6.93;99.41
28628;BME280;15815;46.760;19.604;2023-11-21T05:54:28;99868.81;;;6.93;99.27
28628;BME280;15815;46.760;19.604;2023-11-21T05:56:54;99887.59;;;7.00;100.00
28628;BME280;15815;46.760;19.604;2023-11-21T05:59:19;99889.63;;;7.06;98.96
28628;BME280;15815;46.760;19.604;2023-11-21T06:01:48;99896.03;;;7.10;99.20
28628;BME280;15815;46.760;19.604;2023-11-21T06:04:13;99891.22;;;7.07;99.31
28628;BME280;15815;46.760;19.604;2023-11-21T06:06:40;99898.06;;;7.13;99.43
28628;BME280;15815;46.760;19.604;2023-11-21T06:09:05;99886.44;;;7.11;99.29
28628;BME280;15815;46.760;19.604;2023-11-21T06:11:31;99896.81;;;7.07;99.35
28628;BME280;15815;46.760;19.604;2023-11-21T06:13:57;99900.88;;;7.21;99.38
28628;BME280;15815;46.760;19.604;2023-11-21T06:16:22;99900.50;;;7.22;98.84
28628;BME280;15815;46.760;19.604;2023-11-21T06:18:48;99900.50;;;7.22;99.65
28628;BME280;15815;46.760;19.604;2023-11-21T06:21:13;99913.72;;;7.36;99.23
28628;BME280;15815;46.760;19.604;2023-11-21T06:23:39;99910.53;;;7.37;99.14
28628;BME280;15815;46.760;19.604;2023-11-21T06:26:05;99888.53;;;7.32;98.52
28628;BME280;15815;46.760;19.604;2023-11-21T06:28:31;99891.75;;;7.38;98.89
28628;BME280;15815;46.760;19.604;2023-11-21T06:30:57;99898.59;;;7.44;99.20
28628;BME280;15815;46.760;19.604;2023-11-21T06:33:25;99898.59;;;7.40;99.00
28628;BME280;15815;46.760;19.604;2023-11-21T06:35:51;99906.59;;;7.46;98.48
28628;BME280;15815;46.760;19.604;2023-11-21T06:38:16;99888.94;;;7.31;99.43
28628;BME280;15815;46.760;19.604;2023-11-21T06:40:42;99901.00;;;7.49;99.03
28628;BME280;15815;46.760;19.604;2023-11-21T06:43:08;99893.78;;;7.41;98.84
28628;BME280;15815;46.760;19.604;2023-11-21T06:45:33;99929.78;;;7.53;99.14
28628;BME280;15815;46.760;19.604;2023-11-21T06:47:59;99931.00;;;7.56;98.55
28628;BME280;15815;46.760;19.604;2023-11-21T06:50:25;99893.41;;;7.42;98.61
28628;BME280;15815;46.760;19.604;2023-11-21T06:52:50;99889.00;;;7.45;98.67
28628;BME280;15815;46.760;19.604;2023-11-21T06:55:16;99888.63;;;7.57;98.33
28628;BME280;15815;46.760;19.604;2023-11-21T06:57:41;99881.03;;;7.47;98.62
28628;BME280;15815;46.760;19.604;2023-11-21T07:00:07;99899.84;;;7.64;98.71
28628;BME280;15815;46.760;19.604;2023-11-21T07:02:33;99907.47;;;7.71;98.75
28628;BME280;15815;46.760;19.604;2023-11-21T07:04:58;99913.91;;;7.82;98.38
28628;BME280;15815;46.760;19.604;2023-11-21T07:07:25;99882.66;;;7.59;98.28
28628;BME280;15815;46.760;19.604;2023-11-21T07:09:51;99904.25;;;7.65;98.22
28628;BME280;15815;46.760;19.604;2023-11-21T07:12:16;99907.47;;;7.71;98.48
28628;BME280;15815;46.760;19.604;2023-11-21T07:14:42;99929.50;;;7.87;98.58
28628;BME280;15815;46.760;19.604;2023-11-21T07:17:09;99937.09;;;7.86;98.94
28628;BME280;15815;46.760;19.604;2023-11-21T07:19:34;99931.09;;;7.84;98.92
28628;BME280;15815;46.760;19.604;2023-11-21T07:22:00;99923.47;;;7.78;99.03
28628;BME280;15815;46.760;19.604;2023-11-21T07:24:25;99900.69;;;7.68;99.25
28628;BME280;15815;46.760;19.604;2023-11-21T07:26:51;99905.06;;;7.69;99.21
28628;BME280;15815;46.760;19.604;2023-11-21T07:29:18;99912.28;;;7.85;99.25
28628;BME280;15815;46.760;19.604;2023-11-21T07:31:43;99906.28;;;7.83;99.29
28628;BME280;15815;46.760;19.604;2023-11-21T07:34:08;99917.53;;;7.97;98.95
28628;BME280;15815;46.760;19.604;2023-11-21T07:36:34;99917.16;;;8.05;98.68
28628;BME280;15815;46.760;19.604;2023-11-21T07:38:59;99905.16;;;8.05;99.21
28628;BME280;15815;46.760;19.604;2023-11-21T07:41:25;99917.16;;;8.05;98.96
28628;BME280;15815;46.760;19.604;2023-11-21T07:43:52;99919.50;;;7.93;99.10
28628;BME280;15815;46.760;19.604;2023-11-21T07:46:17;99920.75;;;7.95;99.32
28628;BME280;15815;46.760;19.604;2023-11-21T07:48:43;99941.53;;;8.09;99.67
28628;BME280;15815;46.760;19.604;2023-11-21T07:51:09;99955.16;;;8.17;99.51
28628;BME280;15815;46.760;19.604;2023-11-21T07:53:36;99943.94;;;8.06;99.50
28628;BME280;15815;46.760;19.604;2023-11-21T07:56:06;99947.53;;;8.18;99.44
28628;BME280;15815;46.760;19.604;2023-11-21T07:58:33;99928.75;;;8.11;99.71
28628;BME280;15815;46.760;19.604;2023-11-21T08:01:03;99923.53;;;8.02;99.63
28628;BME280;15815;46.760;19.604;2023-11-21T08:03:29;99924.34;;;8.03;99.52
28628;BME280;15815;46.760;19.604;2023-11-21T08:05:58;99955.16;;;8.17;99.56
28628;BME280;15815;46.760;19.604;2023-11-21T08:08:24;99943.56;;;8.15;99.38
28628;BME280;15815;46.760;19.604;2023-11-21T08:10:50;99947.97;;;8.23;100.00
28628;BME280;15815;46.760;19.604;2023-11-21T08:13:17;99947.59;;;8.32;99.52
28628;BME280;15815;46.760;19.604;2023-11-21T08:15:43;99917.94;;;8.13;99.99
28628;BME280;15815;46.760;19.604;2023-11-21T08:18:08;99928.78;;;8.22;99.42
28628;BME280;15815;46.760;19.604;2023-11-21T08:20:34;99940.41;;;8.38;99.79
28628;BME280;15815;46.760;19.604;2023-11-21T08:22:59;99942.00;;;8.43;100.00
28628;BME280;15815;46.760;19.604;2023-11-21T08:25:25;99930.81;;;8.43;99.72
28628;BME280;15815;46.760;19.604;2023-11-21T08:27:51;99953.63;;;8.55;99.59
28628;BME280;15815;46.760;19.604;2023-11-21T08:30:16;99938.00;;;8.44;99.90
28628;BME280;15815;46.760;19.604;2023-11-21T08:32:42;99958.03;;;8.56;100.00
28628;BME280;15815;46.760;19.604;2023-11-21T08:35:08;99963.25;;;8.61;99.75
28628;BME280;15815;46.760;19.604;2023-11-21T08:37:33;99926.81;;;8.47;99.24
28628;BME280;15815;46.760;19.604;2023-11-21T08:39:59;99956.44;;;8.62;99.67
28628;BME280;15815;46.760;19.604;2023-11-21T08:42:25;99951.63;;;8.59;99.21
28628;BME280;15815;46.760;19.604;2023-11-21T08:44:53;99930.41;;;8.48;99.40
28628;BME280;15815;46.760;19.604;2023-11-21T08:47:18;99960.03;;;8.70;99.37
28628;BME280;15815;46.760;19.604;2023-11-21T08:49:44;99964.84;;;8.70;100.00
28628;BME280;15815;46.760;19.604;2023-11-21T08:52:09;99948.41;;;8.68;99.52
28628;BME280;15815;46.760;19.604;2023-11-21T08:54:35;99964.44;;;8.78;100.00
28628;BME280;15815;46.760;19.604;2023-11-21T08:57:00;99948.81;;;8.70;99.49
28628;BME280;15815;46.760;19.604;2023-11-21T08:59:26;99966.44;;;8.74;99.74
28628;BME280;15815;46.760;19.604;2023-11-21T09:01:52;99962.84;;;8.77;99.46
28628;BME280;15815;46.760;19.604;2023-11-21T09:04:18;99964.44;;;8.75;99.34
28628;BME280;15815;46.760;19.604;2023-11-21T09:06:44;99979.66;;;8.84;99.60
28628;BME280;15815;46.760;19.604;2023-11-21T09:09:09;99974.84;;;8.85;99.14
28628;BME280;15815;46.760;19.604;2023-11-21T09:11:35;99977.25;;;8.86;98.88
28628;BME280;15815;46.760;19.604;2023-11-21T09:14:00;99962.84;;;8.81;98.91
28628;BME280;15815;46.760;19.604;2023-11-21T09:16:26;99978.84;;;8.87;99.26
28628;BME280;15815;46.760;19.604;2023-11-21T09:18:51;99980.84;;;8.87;99.43
28628;BME280;15815;46.760;19.604;2023-11-21T09:21:17;99946.81;;;8.67;99.24
28628;BME280;15815;46.760;19.604;2023-11-21T09:23:44;99976.84;;;8.84;99.17
28628;BME280;15815;46.760;19.604;2023-11-21T09:26:10;99963.66;;;8.78;99.85
28628;BME280;15815;46.760;19.604;2023-11-21T09:28:37;99946.41;;;8.72;100.00
28628;BME280;15815;46.760;19.604;2023-11-21T09:31:03;99964.44;;;8.82;100.00
28628;BME280;15815;46.760;19.604;2023-11-21T09:33:28;99940.41;;;8.84;100.00
28628;BME280;15815;46.760;19.604;2023-11-21T09:35:54;99955.66;;;8.80;100.00
28628;BME280;15815;46.760;19.604;2023-11-21T09:38:19;99943.63;;;8.86;100.00
28628;BME280;15815;46.760;19.604;2023-11-21T09:40:45;99948.41;;;8.96;100.00
28628;BME280;15815;46.760;19.604;2023-11-21T09:43:16;99931.63;;;8.82;100.00
28628;BME280;15815;46.760;19.604;2023-11-21T09:45:45;99936.00;;;8.90;100.00
28628;BME280;15815;46.760;19.604;2023-11-21T09:48:11;99924.00;;;8.86;100.00
28628;BME280;15815;46.760;19.604;2023-11-21T09:50:40;99923.97;;;8.97;100.00
28628;BME280;15815;46.760;19.604;2023-11-21T09:55:38;99931.56;;;9.11;100.00
28628;BME280;15815;46.760;19.604;2023-11-21T09:58:05;99900.38;;;8.91;100.00
28628;BME280;15815;46.760;19.604;2023-11-21T10:00:34;99917.16;;;9.02;100.00
28628;BME280;15815;46.760;19.604;2023-11-21T10:03:00;99911.94;;;9.04;100.00
28628;BME280;15815;46.760;19.604;2023-11-21T10:05:25;99915.56;;;9.04;100.00
28628;BME280;15815;46.760;19.604;2023-11-21T10:07:53;99931.13;;;9.19;100.00
28628;BME280;15815;46.760;19.604;2023-11-21T10:10:21;99901.94;;;9.10;100.00
28628;BME280;15815;46.760;19.604;2023-11-21T10:12:49;99917.50;;;9.25;100.00
28628;BME280;15815;46.760;19.604;2023-11-21T10:15:16;99895.53;;;9.09;100.00
28628;BME280;15815;46.760;19.604;2023-11-21T10:17:44;99901.91;;;9.20;100.00
28628;BME280;15815;46.760;19.604;2023-11-21T10:20:11;99877.50;;;9.14;100.00
28628;BME280;15815;46.760;19.604;2023-11-21T10:22:40;99898.25;;;9.27;100.00
28628;BME280;15815;46.760;19.604;2023-11-21T10:25:10;99890.66;;;9.24;100.00
28628;BME280;15815;46.760;19.604;2023-11-21T10:27:37;99890.63;;;9.38;100.00
28628;BME280;15815;46.760;19.604;2023-11-21T10:30:03;99867.44;;;9.20;100.00
28628;BME280;15815;46.760;19.604;2023-11-21T10:32:31;99881.44;;;9.27;100.00
28628;BME280;15815;46.760;19.604;2023-11-21T10:34:57;99860.66;;;9.14;100.00
28628;BME280;15815;46.760;19.604;2023-11-21T10:37:22;99869.81;;;9.25;100.00
28628;BME280;15815;46.760;19.604;2023-11-21T10:39:48;99847.47;;;9.11;100.00
28628;BME280;15815;46.760;19.604;2023-11-21T10:42:13;99870.63;;;9.25;100.00
28628;BME280;15815;46.760;19.604;2023-11-21T10:44:41;99861.03;;;9.23;100.00
28628;BME280;15815;46.760;19.604;2023-11-21T10:47:08;99879.38;;;9.42;100.00
28628;BME280;15815;46.760;19.604;2023-11-21T10:49:34;99856.19;;;9.27;100.00
28628;BME280;15815;46.760;19.604;2023-11-21T10:52:02;99862.59;;;9.35;100.00
28628;BME280;15815;46.760;19.604;2023-11-21T10:54:29;99861.38;;;9.36;100.00
28628;BME280;15815;46.760;19.604;2023-11-21T10:56:58;99843.75;;;9.35;100.00
28628;BME280;15815;46.760;19.604;2023-11-21T10:59:29;99859.72;;;9.45;100.00
28628;BME280;15815;46.760;19.604;2023-11-21T11:01:57;99844.53;;;9.39;100.00
28628;BME280;15815;46.760;19.604;2023-11-21T11:04:25;99863.31;;;9.49;100.00
28628;BME280;15815;46.760;19.604;2023-11-21T11:06:57;99858.88;;;9.55;100.00
28628;BME280;15815;46.760;19.604;2023-11-21T11:09:26;99853.66;;;9.54;100.00
28628;BME280;15815;46.760;19.604;2023-11-21T11:11:52;99842.50;;;9.43;100.00
28628;BME280;15815;46.760;19.604;2023-11-21T11:14:18;99846.03;;;9.58;100.00
28628;BME280;15815;46.760;19.604;2023-11-21T11:16:45;99819.72;;;9.38;100.00
28628;BME280;15815;46.760;19.604;2023-11-21T11:19:10;99830.88;;;9.45;100.00
28628;BME280;15815;46.760;19.604;2023-11-21T11:27:44;99815.63;;;9.49;100.00
28628;BME280;15815;46.760;19.604;2023-11-21T11:35:36;99775.25;;;9.33;100.00
28628;BME280;15815;46.760;19.604;2023-11-21T11:38:05;99758.47;;;9.25;100.00
28628;BME280;15815;46.760;19.604;2023-11-21T11:40:41;99742.50;;;9.15;100.00
28628;BME280;15815;46.760;19.604;2023-11-21T11:43:06;99730.81;;;9.27;100.00
28628;BME280;15815;46.760;19.604;2023-11-21T11:45:33;99739.19;;;9.35;100.00
28628;BME280;15815;46.760;19.604;2023-11-21T11:48:00;99740.81;;;9.28;100.00
28628;BME280;15815;46.760;19.604;2023-11-21T11:50:25;99714.44;;;9.19;100.00
28628;BME280;15815;46.760;19.604;2023-11-21T11:52:54;99696.91;;;9.01;100.00
28628;BME280;15815;46.760;19.604;2023-11-21T11:55:24;99716.84;;;9.17;100.00
28628;BME280;15815;46.760;19.604;2023-11-21T11:57:53;99709.28;;;9.14;100.00
28628;BME280;15815;46.760;19.604;2023-11-21T12:00:21;99727.66;;;9.18;100.00
28628;BME280;15815;46.760;19.604;2023-11-21T12:02:48;99719.28;;;9.15;100.00
28628;BME280;15815;46.760;19.604;2023-11-21T12:05:16;99744.00;;;9.30;100.00
28628;BME280;15815;46.760;19.604;2023-11-21T12:07:43;99710.44;;;9.20;100.00
28628;BME280;15815;46.760;19.604;2023-11-21T12:10:20;99738.81;;;9.29;100.00
28628;BME280;15815;46.760;19.604;2023-11-21T12:12:47;99730.78;;;9.31;100.00
28628;BME280;15815;46.760;19.604;2023-11-21T12:15:13;99733.56;;;9.38;100.00
28628;BME280;15815;46.760;19.604;2023-11-21T12:17:43;99715.22;;;9.19;100.00
28628;BME280;15815;46.760;19.604;2023-11-21T12:20:09;99734.34;;;9.39;100.00
28628;BME280;15815;46.760;19.604;2023-11-21T12:22:35;99727.56;;;9.36;100.00
28628;BME280;15815;46.760;19.604;2023-11-21T12:25:01;99733.59;;;9.27;100.00
28628;BME280;15815;46.760;19.604;2023-11-21T12:27:26;99716.38;;;9.29;100.00
28628;BME280;15815;46.760;19.604;2023-11-21T12:29:52;99716.78;;;9.27;100.00
28628;BME280;15815;46.760;19.604;2023-11-21T12:32:22;99729.91;;;9.45;100.00
28628;BME280;15815;46.760;19.604;2023-11-21T12:34:47;99732.72;;;9.41;100.00
28628;BME280;15815;46.760;19.604;2023-11-21T12:37:15;99713.16;;;9.34;100.00
28628;BME280;15815;46.760;19.604;2023-11-21T12:39:41;99733.00;;;9.57;100.00
28628;BME280;15815;46.760;19.604;2023-11-21T12:42:06;99729.88;;;9.48;100.00
28628;BME280;15815;46.760;19.604;2023-11-21T12:44:32;99718.31;;;9.39;100.00
28628;BME280;15815;46.760;19.604;2023-11-21T12:46:57;99716.72;;;9.38;100.00
28628;BME280;15815;46.760;19.604;2023-11-21T12:49:24;99721.03;;;9.50;100.00
28628;BME280;15815;46.760;19.604;2023-11-21T12:51:50;99728.19;;;9.58;100.00
28628;BME280;15815;46.760;19.604;2023-11-21T12:54:16;99735.00;;;9.60;100.00
28628;BME280;15815;46.760;19.604;2023-11-21T12:56:45;99690.28;;;9.39;100.00
28628;BME280;15815;46.760;19.604;2023-11-21T12:59:15;99725.78;;;9.56;100.00
28628;BME280;15815;46.760;19.604;2023-11-21T13:01:44;99716.25;;;9.47;100.00
28628;BME280;15815;46.760;19.604;2023-11-21T13:04:09;99738.97;;;9.67;100.00
28628;BME280;15815;46.760;19.604;2023-11-21T13:06:35;99718.19;;;9.57;100.00
28628;BME280;15815;46.760;19.604;2023-11-21T13:09:02;99715.78;;;9.55;100.00